sensor_id;sensor_type;location;lat;lon;timestamp;pressure;altitude;pressure_sealevel;temperature;humidity
74529;BME280;63009;52.584;5.932;2023-05-07T00:00:45;101701.53;;;13.76;100.00
74529;BME280;63009;52.584;5.932;2023-05-07T00:03:11;101704.97;;;13.78;100.00
74529;BME280;63009;52.584;5.932;2023-05-07T00:05:36;101706.59;;;13.81;100.00
74529;BME280;63009;52.584;5.932;2023-05-07T00:08:03;101707.47;;;13.81;100.00
74529;BME280;63009;52.584;5.932;2023-05-07T00:10:28;101704.97;;;13.78;100.00
74529;BME280;63009;52.584;5.932;2023-05-07T00:12:53;101716.53;;;13.77;100.00
74529;BME280;63009;52.584;5.932;2023-05-07T00:15:19;101710.53;;;13.74;100.00
74529;BME280;63009;52.584;5.932;2023-05-07T00:17:44;101708.75;;;13.74;100.00
74529;BME280;63009;52.584;5.932;2023-05-07T00:20:10;101713.97;;;13.76;100.00
74529;BME280;63009;52.584;5.932;2023-05-07T00:22:35;101709.78;;;13.72;100.00
74529;BME280;63009;52.584;5.932;2023-05-07T00:25:01;101710.53;;;13.74;100.00
74529;BME280;63009;52.584;5.932;2023-05-07T00:27:26;101714.16;;;13.73;100.00
74529;BME280;63009;52.584;5.932;2023-05-07T00:29:51;101710.81;;;13.69;100.00
74529;BME280;63009;52.584;5.932;2023-05-07T00:32:16;101715.09;;;13.72;100.00
74529;BME280;63009;52.584;5.932;2023-05-07T00:34:43;101714.91;;;13.75;100.00
74529;BME280;63009;52.584;5.932;2023-05-07T00:37:08;101709.09;;;13.68;100.00
74529;BME280;63009;52.584;5.932;2023-05-07T00:39:34;101707.03;;;13.73;100.00
74529;BME280;63009;52.584;5.932;2023-05-07T00:41:59;101706.28;;;13.71;100.00
74529;BME280;63009;52.584;5.932;2023-05-07T00:44:25;101692.31;;;13.68;100.00
74529;BME280;63009;52.584;5.932;2023-05-07T00:46:51;101701.06;;;13.70;100.00
74529;BME280;63009;52.584;5.932;2023-05-07T00:49:17;101704.38;;;13.73;100.00
74529;BME280;63009;52.584;5.932;2023-05-07T00:51:43;101708.75;;;13.74;100.00
74529;BME280;63009;52.584;5.932;2023-05-07T00:54:10;101698.13;;;13.74;100.00
74529;BME280;63009;52.584;5.932;2023-05-07T00:56:36;101700.00;;;13.72;100.00
74529;BME280;63009;52.584;5.932;2023-05-07T00:59:03;101702.75;;;13.71;100.00
74529;BME280;63009;52.584;5.932;2023-05-07T01:01:28;101700.88;;;13.73;100.00
74529;BME280;63009;52.584;5.932;2023-05-07T01:03:54;101696.59;;;13.70;100.00
74529;BME280;63009;52.584;5.932;2023-05-07T01:06:20;101697.06;;;13.77;100.00
74529;BME280;63009;52.584;5.932;2023-05-07T01:08:48;101678.19;;;13.67;100.00
74529;BME280;63009;52.584;5.932;2023-05-07T01:11:16;101687.75;;;13.70;100.00
74529;BME280;63009;52.584;5.932;2023-05-07T01:13:42;101673.81;;;13.66;100.00
74529;BME280;63009;52.584;5.932;2023-05-07T01:16:08;101688.72;;;13.69;100.00
74529;BME280;63009;52.584;5.932;2023-05-07T01:18:34;101691.47;;;13.67;100.00
74529;BME280;63009;52.584;5.932;2023-05-07T01:21:01;101667.13;;;13.59;100.00
74529;BME280;63009;52.584;5.932;2023-05-07T01:23:29;101678.19;;;13.67;100.00
74529;BME280;63009;52.584;5.932;2023-05-07T01:25:55;101674.56;;;13.68;100.00
74529;BME280;63009;52.584;5.932;2023-05-07T01:28:21;101677.22;;;13.68;100.00
74529;BME280;63009;52.584;5.932;2023-05-07T01:30:52;101680.66;;;13.70;100.00
74529;BME280;63009;52.584;5.932;2023-05-07T01:33:20;101675.16;;;13.73;100.00
74529;BME280;63009;52.584;5.932;2023-05-07T01:35:48;101692.03;;;13.72;100.00
74529;BME280;63009;52.584;5.932;2023-05-07T01:38:15;101679.78;;;13.70;100.00
74529;BME280;63009;52.584;5.932;2023-05-07T01:40:41;101686.72;;;13.72;100.00
74529;BME280;63009;52.584;5.932;2023-05-07T01:43:07;101679.69;;;13.71;100.00
74529;BME280;63009;52.584;5.932;2023-05-07T01:45:34;101685.97;;;13.70;100.00
74529;BME280;63009;52.584;5.932;2023-05-07T01:48:00;101691.09;;;13.73;100.00
74529;BME280;63009;52.584;5.932;2023-05-07T01:50:26;101686.06;;;13.69;100.00
74529;BME280;63009;52.584;5.932;2023-05-07T01:52:52;101675.00;;;13.60;100.00
74529;BME280;63009;52.584;5.932;2023-05-07T01:55:18;101680.22;;;13.62;100.00
74529;BME280;63009;52.584;5.932;2023-05-07T01:57:43;101677.94;;;13.56;100.00
74529;BME280;63009;52.584;5.932;2023-05-07T02:00:08;101687.34;;;13.61;100.00
74529;BME280;63009;52.584;5.932;2023-05-07T02:02:35;101671.34;;;13.47;100.00
74529;BME280;63009;52.584;5.932;2023-05-07T02:05:00;101692.16;;;13.55;100.00
74529;BME280;63009;52.584;5.932;2023-05-07T02:07:27;101685.13;;;13.54;100.00
74529;BME280;63009;52.584;5.932;2023-05-07T02:09:52;101703.38;;;13.60;100.00
74529;BME280;63009;52.584;5.932;2023-05-07T02:12:17;101695.59;;;13.57;100.00
74529;BME280;63009;52.584;5.932;2023-05-07T02:14:43;101704.50;;;13.56;100.00
74529;BME280;63009;52.584;5.932;2023-05-07T02:17:08;101695.91;;;13.51;100.00
74529;BME280;63009;52.584;5.932;2023-05-07T02:19:33;101698.56;;;13.51;100.00
74529;BME280;63009;52.584;5.932;2023-05-07T02:21:59;101704.81;;;13.50;100.00
74529;BME280;63009;52.584;5.932;2023-05-07T02:24:24;101700.56;;;13.47;100.00
74529;BME280;63009;52.584;5.932;2023-05-07T02:26:49;101698.84;;;13.46;100.00
74529;BME280;63009;52.584;5.932;2023-05-07T02:29:15;101695.25;;;13.47;100.00
74529;BME280;63009;52.584;5.932;2023-05-07T02:31:40;101699.69;;;13.47;100.00
74529;BME280;63009;52.584;5.932;2023-05-07T02:34:05;101701.50;;;13.46;100.00
74529;BME280;63009;52.584;5.932;2023-05-07T02:36:31;101690.97;;;13.45;100.00
74529;BME280;63009;52.584;5.932;2023-05-07T02:38:56;101692.31;;;13.36;100.00
74529;BME280;63009;52.584;5.932;2023-05-07T02:41:21;101694.94;;;13.38;100.00
74529;BME280;63009;52.584;5.932;2023-05-07T02:43:47;101697.06;;;13.31;100.00
74529;BME280;63009;52.584;5.932;2023-05-07T02:46:12;101699.78;;;13.29;100.00
74529;BME280;63009;52.584;5.932;2023-05-07T02:48:37;101697.81;;;13.33;100.00
74529;BME280;63009;52.584;5.932;2023-05-07T02:51:03;101697.06;;;13.31;100.00
74529;BME280;63009;52.584;5.932;2023-05-07T02:53:29;101697.06;;;13.31;100.00
74529;BME280;63009;52.584;5.932;2023-05-07T02:55:59;101705.09;;;13.29;100.00
74529;BME280;63009;52.584;5.932;2023-05-07T02:58:24;101707.00;;;13.27;100.00
74529;BME280;63009;52.584;5.932;2023-05-07T03:00:50;101693.19;;;13.21;100.00
74529;BME280;63009;52.584;5.932;2023-05-07T03:03:15;101697.66;;;13.20;100.00
74529;BME280;63009;52.584;5.932;2023-05-07T03:05:41;101692.41;;;13.19;100.00
74529;BME280;63009;52.584;5.932;2023-05-07T03:08:07;101698.06;;;13.13;100.00
74529;BME280;63009;52.584;5.932;2023-05-07T03:10:32;101701.56;;;13.13;100.00
74529;BME280;63009;52.584;5.932;2023-05-07T03:12:58;101697.69;;;13.03;100.00
74529;BME280;63009;52.584;5.932;2023-05-07T03:15:23;101700.34;;;13.03;100.00
74529;BME280;63009;52.584;5.932;2023-05-07T03:17:48;101700.78;;;12.95;100.00
74529;BME280;63009;52.584;5.932;2023-05-07T03:20:14;101701.69;;;12.94;100.00
74529;BME280;63009;52.584;5.932;2023-05-07T03:22:39;101707.16;;;12.91;100.00
74529;BME280;63009;52.584;5.932;2023-05-07T03:25:05;101703.84;;;12.88;100.00
74529;BME280;63009;52.584;5.932;2023-05-07T03:27:30;101699.56;;;12.85;100.00
74529;BME280;63009;52.584;5.932;2023-05-07T03:29:56;101712.91;;;12.84;100.00
74529;BME280;63009;52.584;5.932;2023-05-07T03:32:21;101712.16;;;12.82;100.00
74529;BME280;63009;52.584;5.932;2023-05-07T03:34:46;101703.72;;;12.73;100.00
74529;BME280;63009;52.584;5.932;2023-05-07T03:37:12;101707.22;;;12.74;100.00
74529;BME280;63009;52.584;5.932;2023-05-07T03:39:37;101709.88;;;12.74;100.00
74529;BME280;63009;52.584;5.932;2023-05-07T03:42:02;101715.09;;;12.75;100.00
74529;BME280;63009;52.584;5.932;2023-05-07T03:44:28;101708.50;;;12.67;100.00
74529;BME280;63009;52.584;5.932;2023-05-07T03:46:53;101709.03;;;12.73;100.00
74529;BME280;63009;52.584;5.932;2023-05-07T03:49:18;101706.72;;;12.67;100.00
74529;BME280;63009;52.584;5.932;2023-05-07T03:51:43;101706.00;;;12.64;100.00
74529;BME280;63009;52.584;5.932;2023-05-07T03:54:09;101711.47;;;12.61;100.00
74529;BME280;63009;52.584;5.932;2023-05-07T03:56:34;101716.88;;;12.59;100.00
74529;BME280;63009;52.584;5.932;2023-05-07T03:59:00;101715.44;;;12.52;100.00
74529;BME280;63009;52.584;5.932;2023-05-07T04:01:26;101702.44;;;12.47;100.00
74529;BME280;63009;52.584;5.932;2023-05-07T04:03:51;101709.09;;;12.39;100.00
74529;BME280;63009;52.584;5.932;2023-05-07T04:06:17;101708.94;;;12.42;100.00
74529;BME280;63009;52.584;5.932;2023-05-07T04:08:42;101718.78;;;12.40;100.00
74529;BME280;63009;52.584;5.932;2023-05-07T04:11:08;101723.34;;;12.36;100.00
74529;BME280;63009;52.584;5.932;2023-05-07T04:13:33;101718.13;;;12.35;100.00
74529;BME280;63009;52.584;5.932;2023-05-07T04:15:58;101706.91;;;12.30;100.00
74529;BME280;63009;52.584;5.932;2023-05-07T04:18:24;101715.41;;;12.36;100.00
74529;BME280;63009;52.584;5.932;2023-05-07T04:20:49;101715.47;;;12.35;100.00
74529;BME280;63009;52.584;5.932;2023-05-07T04:23:15;101723.44;;;12.35;100.00
74529;BME280;63009;52.584;5.932;2023-05-07T04:25:40;101718.47;;;12.29;100.00
74529;BME280;63009;52.584;5.932;2023-05-07T04:28:05;101717.81;;;12.24;100.00
74529;BME280;63009;52.584;5.932;2023-05-07T04:30:31;101735.38;;;12.26;100.00
74529;BME280;63009;52.584;5.932;2023-05-07T04:32:56;101721.56;;;12.19;100.00
74529;BME280;63009;52.584;5.932;2023-05-07T04:35:22;101726.78;;;12.21;100.00
74529;BME280;63009;52.584;5.932;2023-05-07T04:37:47;101740.81;;;12.23;100.00
74529;BME280;63009;52.584;5.932;2023-05-07T04:40:12;101737.31;;;12.23;100.00
74529;BME280;63009;52.584;5.932;2023-05-07T04:42:38;101737.19;;;12.26;100.00
74529;BME280;63009;52.584;5.932;2023-05-07T04:45:04;101735.59;;;12.22;100.00
74529;BME280;63009;52.584;5.932;2023-05-07T04:47:30;101731.56;;;12.14;100.00
74529;BME280;63009;52.584;5.932;2023-05-07T04:49:55;101733.13;;;12.18;100.00
74529;BME280;63009;52.584;5.932;2023-05-07T04:52:20;101746.38;;;12.18;100.00
74529;BME280;63009;52.584;5.932;2023-05-07T04:54:45;101746.59;;;12.14;100.00
74529;BME280;63009;52.584;5.932;2023-05-07T04:57:11;101747.63;;;12.11;100.00
74529;BME280;63009;52.584;5.932;2023-05-07T04:59:36;101752.00;;;12.12;100.00
74529;BME280;63009;52.584;5.932;2023-05-07T05:02:02;101745.03;;;12.10;100.00
74529;BME280;63009;52.584;5.932;2023-05-07T05:04:29;101754.63;;;12.12;100.00
74529;BME280;63009;52.584;5.932;2023-05-07T05:06:54;101757.13;;;12.15;100.00
74529;BME280;63009;52.584;5.932;2023-05-07T05:09:20;101759.28;;;12.07;100.00
74529;BME280;63009;52.584;5.932;2023-05-07T05:11:45;101756.63;;;12.07;100.00
74529;BME280;63009;52.584;5.932;2023-05-07T05:14:10;101756.81;;;12.04;100.00
74529;BME280;63009;52.584;5.932;2023-05-07T05:16:35;101755.09;;;12.03;100.00
74529;BME280;63009;52.584;5.932;2023-05-07T05:19:02;101766.84;;;11.98;100.00
74529;BME280;63009;52.584;5.932;2023-05-07T05:21:27;101756.47;;;11.93;100.00
74529;BME280;63009;52.584;5.932;2023-05-07T05:23:52;101769.63;;;11.95;100.00
74529;BME280;63009;52.584;5.932;2023-05-07T05:26:18;101769.50;;;11.98;100.00
74529;BME280;63009;52.584;5.932;2023-05-07T05:28:43;101775.50;;;12.01;100.00
74529;BME280;63009;52.584;5.932;2023-05-07T05:31:09;101782.81;;;11.96;100.00
74529;BME280;63009;52.584;5.932;2023-05-07T05:33:35;101781.50;;;12.05;100.00
74529;BME280;63009;52.584;5.932;2023-05-07T05:36:00;101784.06;;;12.06;100.00
74529;BME280;63009;52.584;5.932;2023-05-07T05:38:26;101786.44;;;12.12;100.00
74529;BME280;63009;52.584;5.932;2023-05-07T05:40:51;101797.91;;;12.13;100.00
74529;BME280;63009;52.584;5.932;2023-05-07T05:43:16;101796.97;;;12.14;100.00
74529;BME280;63009;52.584;5.932;2023-05-07T05:45:41;101798.75;;;12.13;100.00
74529;BME280;63009;52.584;5.932;2023-05-07T05:48:07;101787.22;;;12.14;100.00
74529;BME280;63009;52.584;5.932;2023-05-07T05:50:33;101801.53;;;12.10;100.00
74529;BME280;63009;52.584;5.932;2023-05-07T05:53:00;101801.41;;;12.13;100.00
74529;BME280;63009;52.584;5.932;2023-05-07T05:55:26;101796.19;;;12.12;100.00
74529;BME280;63009;52.584;5.932;2023-05-07T05:57:52;101790.03;;;12.11;100.00
74529;BME280;63009;52.584;5.932;2023-05-07T06:00:17;101790.22;;;12.07;100.00
74529;BME280;63009;52.584;5.932;2023-05-07T06:02:42;101798.75;;;12.13;100.00
74529;BME280;63009;52.584;5.932;2023-05-07T06:05:08;101793.38;;;12.15;100.00
74529;BME280;63009;52.584;5.932;2023-05-07T06:07:34;101789.09;;;12.12;100.00
74529;BME280;63009;52.584;5.932;2023-05-07T06:10:00;101793.28;;;12.16;100.00
74529;BME280;63009;52.584;5.932;2023-05-07T06:12:25;101789.38;;;12.24;100.00
74529;BME280;63009;52.584;5.932;2023-05-07T06:14:50;101803.75;;;12.37;100.00
74529;BME280;63009;52.584;5.932;2023-05-07T06:17:16;101800.63;;;12.46;100.00
74529;BME280;63009;52.584;5.932;2023-05-07T06:19:41;101810.53;;;12.60;100.00
74529;BME280;63009;52.584;5.932;2023-05-07T06:22:07;101800.53;;;12.65;100.00
74529;BME280;63009;52.584;5.932;2023-05-07T06:24:32;101806.22;;;12.74;100.00
74529;BME280;63009;52.584;5.932;2023-05-07T06:26:57;101801.09;;;12.71;100.00
74529;BME280;63009;52.584;5.932;2023-05-07T06:29:23;101798.56;;;12.86;100.00
74529;BME280;63009;52.584;5.932;2023-05-07T06:31:52;101794.50;;;12.78;100.00
74529;BME280;63009;52.584;5.932;2023-05-07T06:34:17;101810.91;;;12.87;100.00
74529;BME280;63009;52.584;5.932;2023-05-07T06:36:42;101801.69;;;12.76;100.00
74529;BME280;63009;52.584;5.932;2023-05-07T06:39:07;101807.47;;;12.85;100.00
74529;BME280;63009;52.584;5.932;2023-05-07T06:41:33;101810.13;;;12.85;100.00
74529;BME280;63009;52.584;5.932;2023-05-07T06:43:59;101811.06;;;12.84;100.00
74529;BME280;63009;52.584;5.932;2023-05-07T06:46:24;101816.13;;;12.88;100.00
74529;BME280;63009;52.584;5.932;2023-05-07T06:48:50;101807.13;;;12.91;100.00
74529;BME280;63009;52.584;5.932;2023-05-07T06:51:15;101805.44;;;12.90;100.00
74529;BME280;63009;52.584;5.932;2023-05-07T06:53:41;101806.03;;;12.95;100.00
74529;BME280;63009;52.584;5.932;2023-05-07T06:56:06;101815.03;;;12.92;100.00
74529;BME280;63009;52.584;5.932;2023-05-07T06:58:31;101813.84;;;12.98;100.00
74529;BME280;63009;52.584;5.932;2023-05-07T07:00:57;101818.53;;;13.10;100.00
74529;BME280;63009;52.584;5.932;2023-05-07T07:03:22;101807.28;;;13.05;100.00
74529;BME280;63009;52.584;5.932;2023-05-07T07:05:51;101823.56;;;13.15;100.00
74529;BME280;63009;52.584;5.932;2023-05-07T07:08:16;101832.56;;;13.12;100.00
74529;BME280;63009;52.584;5.932;2023-05-07T07:10:43;101817.31;;;13.16;100.00
74529;BME280;63009;52.584;5.932;2023-05-07T07:13:08;101818.25;;;13.15;100.00
74529;BME280;63009;52.584;5.932;2023-05-07T07:15:33;101822.63;;;13.16;100.00
74529;BME280;63009;52.584;5.932;2023-05-07T07:17:58;101826.31;;;13.13;100.00
74529;BME280;63009;52.584;5.932;2023-05-07T07:20:24;101828.72;;;13.18;100.00
74529;BME280;63009;52.584;5.932;2023-05-07T07:22:49;101833.09;;;13.19;100.00
74529;BME280;63009;52.584;5.932;2023-05-07T07:25:14;101838.47;;;13.17;100.00
74529;BME280;63009;52.584;5.932;2023-05-07T07:27:39;101830.38;;;13.20;100.00
74529;BME280;63009;52.584;5.932;2023-05-07T07:30:05;101827.63;;;13.22;100.00
74529;BME280;63009;52.584;5.932;2023-05-07T07:32:31;101820.91;;;13.32;100.00
74529;BME280;63009;52.584;5.932;2023-05-07T07:34:58;101815.59;;;13.32;100.00
74529;BME280;63009;52.584;5.932;2023-05-07T07:37:23;101819.19;;;13.47;100.00
74529;BME280;63009;52.584;5.932;2023-05-07T07:39:50;101818.53;;;13.59;100.00
74529;BME280;63009;52.584;5.932;2023-05-07T07:42:15;101817.41;;;13.94;100.00
74529;BME280;63009;52.584;5.932;2023-05-07T07:44:41;101820.59;;;14.31;100.00
74529;BME280;63009;52.584;5.932;2023-05-07T07:47:06;101815.72;;;14.69;97.96
74529;BME280;63009;52.584;5.932;2023-05-07T07:49:31;101815.66;;;15.13;96.08
74529;BME280;63009;52.584;5.932;2023-05-07T07:51:57;101821.72;;;15.44;92.95
74529;BME280;63009;52.584;5.932;2023-05-07T07:54:24;101817.00;;;15.35;92.25
74529;BME280;63009;52.584;5.932;2023-05-07T07:56:50;101811.94;;;15.44;92.95
74529;BME280;63009;52.584;5.932;2023-05-07T07:59:16;101815.72;;;15.55;91.64
74529;BME280;63009;52.584;5.932;2023-05-07T08:01:43;101825.53;;;15.68;92.29
74529;BME280;63009;52.584;5.932;2023-05-07T08:04:09;101830.28;;;15.78;91.63
74529;BME280;63009;52.584;5.932;2023-05-07T08:06:34;101838.78;;;15.70;90.23
74529;BME280;63009;52.584;5.932;2023-05-07T08:08:59;101826.41;;;15.69;91.50
74529;BME280;63009;52.584;5.932;2023-05-07T08:11:27;101831.63;;;15.70;91.19
74529;BME280;63009;52.584;5.932;2023-05-07T08:13:54;101841.50;;;15.83;92.30
74529;BME280;63009;52.584;5.932;2023-05-07T08:16:19;101835.22;;;15.84;90.58
74529;BME280;63009;52.584;5.932;2023-05-07T08:18:44;101839.16;;;15.78;90.46
74529;BME280;63009;52.584;5.932;2023-05-07T08:21:10;101829.38;;;15.64;90.82
74529;BME280;63009;52.584;5.932;2023-05-07T08:23:35;101838.28;;;15.78;92.14
74529;BME280;63009;52.584;5.932;2023-05-07T08:26:01;101838.28;;;15.78;90.67
74529;BME280;63009;52.584;5.932;2023-05-07T08:28:26;101839.16;;;15.78;91.18
74529;BME280;63009;52.584;5.932;2023-05-07T08:30:51;101824.56;;;15.55;91.02
74529;BME280;63009;52.584;5.932;2023-05-07T08:33:17;101825.94;;;15.62;92.98
74529;BME280;63009;52.584;5.932;2023-05-07T08:35:42;101834.84;;;15.76;93.20
74529;BME280;63009;52.584;5.932;2023-05-07T08:38:07;101828.94;;;15.85;92.57
74529;BME280;63009;52.584;5.932;2023-05-07T08:40:37;101835.63;;;16.04;92.55
74529;BME280;63009;52.584;5.932;2023-05-07T08:43:05;101844.63;;;16.16;91.16
74529;BME280;63009;52.584;5.932;2023-05-07T08:45:32;101843.38;;;16.22;90.51
74529;BME280;63009;52.584;5.932;2023-05-07T08:47:59;101832.47;;;16.12;89.73
74529;BME280;63009;52.584;5.932;2023-05-07T08:50:26;101833.72;;;16.46;92.04
74529;BME280;63009;52.584;5.932;2023-05-07T08:52:51;101827.28;;;16.63;89.66
74529;BME280;63009;52.584;5.932;2023-05-07T08:55:17;101838.31;;;16.97;88.45
74529;BME280;63009;52.584;5.932;2023-05-07T08:57:42;101827.66;;;17.22;85.37
74529;BME280;63009;52.584;5.932;2023-05-07T09:00:08;101830.72;;;17.41;84.85
74529;BME280;63009;52.584;5.932;2023-05-07T09:02:35;101814.91;;;17.38;84.95
74529;BME280;63009;52.584;5.932;2023-05-07T09:05:01;101830.94;;;17.38;83.97
74529;BME280;63009;52.584;5.932;2023-05-07T09:07:26;101825.84;;;17.72;84.78
74529;BME280;63009;52.584;5.932;2023-05-07T09:09:52;101833.34;;;17.79;83.34
74529;BME280;63009;52.584;5.932;2023-05-07T09:12:21;101839.63;;;17.91;82.65
74529;BME280;63009;52.584;5.932;2023-05-07T09:14:46;101829.53;;;17.95;82.31
74529;BME280;63009;52.584;5.932;2023-05-07T09:17:12;101838.41;;;17.95;82.23
74529;BME280;63009;52.584;5.932;2023-05-07T09:19:37;101825.03;;;17.95;81.80
74529;BME280;63009;52.584;5.932;2023-05-07T09:22:04;101836.41;;;18.10;81.21
74529;BME280;63009;52.584;5.932;2023-05-07T09:24:30;101836.91;;;18.15;82.18
74529;BME280;63009;52.584;5.932;2023-05-07T09:27:03;101823.78;;;18.36;80.88
74529;BME280;63009;52.584;5.932;2023-05-07T09:29:29;101840.31;;;18.30;80.60
74529;BME280;63009;52.584;5.932;2023-05-07T09:31:55;101828.16;;;18.37;81.09
74529;BME280;63009;52.584;5.932;2023-05-07T09:34:21;101836.16;;;18.61;80.93
74529;BME280;63009;52.584;5.932;2023-05-07T09:36:47;101826.47;;;18.71;80.77
74529;BME280;63009;52.584;5.932;2023-05-07T09:39:13;101835.88;;;18.99;79.01
74529;BME280;63009;52.584;5.932;2023-05-07T09:41:48;101844.56;;;19.03;78.83
74529;BME280;63009;52.584;5.932;2023-05-07T09:44:14;101832.34;;;18.98;78.56
74529;BME280;63009;52.584;5.932;2023-05-07T09:46:42;101837.56;;;18.78;79.71
74529;BME280;63009;52.584;5.932;2023-05-07T09:49:08;101833.94;;;18.90;78.80
74529;BME280;63009;52.584;5.932;2023-05-07T09:51:47;101836.28;;;19.06;79.13
74529;BME280;63009;52.584;5.932;2023-05-07T09:54:13;101829.34;;;19.03;79.19
74529;BME280;63009;52.584;5.932;2023-05-07T09:56:39;101840.56;;;19.19;77.29
74529;BME280;63009;52.584;5.932;2023-05-07T09:59:07;101841.53;;;19.30;76.86
74529;BME280;63009;52.584;5.932;2023-05-07T10:01:35;101838.38;;;19.47;77.32
74529;BME280;63009;52.584;5.932;2023-05-07T10:04:02;101844.56;;;19.36;78.07
74529;BME280;63009;52.584;5.932;2023-05-07T10:06:30;101838.25;;;19.48;75.48
74529;BME280;63009;52.584;5.932;2023-05-07T10:08:55;101843.72;;;19.47;75.91
74529;BME280;63009;52.584;5.932;2023-05-07T10:11:22;101838.16;;;19.61;76.26
74529;BME280;63009;52.584;5.932;2023-05-07T10:13:48;101833.25;;;19.77;73.98
74529;BME280;63009;52.584;5.932;2023-05-07T10:16:13;101841.72;;;20.05;72.29
74529;BME280;63009;52.584;5.932;2023-05-07T10:18:41;101841.19;;;20.11;71.08
74529;BME280;63009;52.584;5.932;2023-05-07T10:21:20;101836.06;;;20.40;71.32
74529;BME280;63009;52.584;5.932;2023-05-07T10:23:49;101842.38;;;20.61;70.06
74529;BME280;63009;52.584;5.932;2023-05-07T10:26:17;101842.81;;;20.34;70.04
74529;BME280;63009;52.584;5.932;2023-05-07T10:28:46;101842.81;;;20.34;71.94
74529;BME280;63009;52.584;5.932;2023-05-07T10:33:48;101837.88;;;20.19;73.04
74529;BME280;63009;52.584;5.932;2023-05-07T10:36:13;101831.94;;;20.15;72.45
74529;BME280;63009;52.584;5.932;2023-05-07T10:38:39;101829.66;;;19.99;73.66
74529;BME280;63009;52.584;5.932;2023-05-07T10:41:05;101827.06;;;19.98;73.33
74529;BME280;63009;52.584;5.932;2023-05-07T10:43:41;101834.78;;;20.02;71.46
74529;BME280;63009;52.584;5.932;2023-05-07T10:46:19;101842.38;;;19.86;72.12
74529;BME280;63009;52.584;5.932;2023-05-07T10:51:26;101849.19;;;19.79;75.87
74529;BME280;63009;52.584;5.932;2023-05-07T10:56:42;101860.44;;;19.62;73.13
74529;BME280;63009;52.584;5.932;2023-05-07T11:01:59;101847.63;;;19.65;74.06
74529;BME280;63009;52.584;5.932;2023-05-07T11:04:25;101841.03;;;19.69;72.67
74529;BME280;63009;52.584;5.932;2023-05-07T11:15:07;101849.19;;;19.79;72.71
74529;BME280;63009;52.584;5.932;2023-05-07T11:17:34;101840.44;;;19.66;73.63
74529;BME280;63009;52.584;5.932;2023-05-07T11:20:01;101846.66;;;19.55;72.36
74529;BME280;63009;52.584;5.932;2023-05-07T11:24:55;101854.72;;;19.44;74.87
74529;BME280;63009;52.584;5.932;2023-05-07T11:27:24;101856.03;;;19.38;74.95
74529;BME280;63009;52.584;5.932;2023-05-07T11:29:50;101850.66;;;19.38;74.70
74529;BME280;63009;52.584;5.932;2023-05-07T11:32:15;101846.88;;;19.52;74.05
74529;BME280;63009;52.584;5.932;2023-05-07T11:34:47;101859.81;;;19.47;74.60
74529;BME280;63009;52.584;5.932;2023-05-07T11:37:19;101855.91;;;19.17;74.49
74529;BME280;63009;52.584;5.932;2023-05-07T11:39:45;101867.84;;;19.36;75.14
74529;BME280;63009;52.584;5.932;2023-05-07T11:42:28;101875.66;;;19.16;75.98
74529;BME280;63009;52.584;5.932;2023-05-07T11:44:54;101867.13;;;19.34;77.42
74529;BME280;63009;52.584;5.932;2023-05-07T11:47:20;101861.53;;;19.48;75.21
74529;BME280;63009;52.584;5.932;2023-05-07T11:49:50;101853.34;;;19.49;75.35
74529;BME280;63009;52.584;5.932;2023-05-07T11:52:16;101865.22;;;19.58;75.21
74529;BME280;63009;52.584;5.932;2023-05-07T11:54:55;101868.72;;;19.47;75.24
74529;BME280;63009;52.584;5.932;2023-05-07T11:57:22;101859.56;;;19.50;75.69
74529;BME280;63009;52.584;5.932;2023-05-07T11:59:47;101864.69;;;19.53;76.95
74529;BME280;63009;52.584;5.932;2023-05-07T12:02:14;101868.63;;;19.60;75.22
74529;BME280;63009;52.584;5.932;2023-05-07T12:04:40;101863.25;;;19.60;74.33
74529;BME280;63009;52.584;5.932;2023-05-07T12:07:05;101864.47;;;19.56;76.18
74529;BME280;63009;52.584;5.932;2023-05-07T12:09:32;101859.59;;;19.61;76.07
74529;BME280;63009;52.584;5.932;2023-05-07T12:12:03;101852.13;;;19.53;76.53
74529;BME280;63009;52.584;5.932;2023-05-07T12:14:28;101859.97;;;19.56;74.66
74529;BME280;63009;52.584;5.932;2023-05-07T12:16:54;101863.97;;;19.62;76.14
74529;BME280;63009;52.584;5.932;2023-05-07T12:19:20;101851.91;;;19.68;75.40
74529;BME280;63009;52.584;5.932;2023-05-07T12:21:45;101863.25;;;19.71;75.40
74529;BME280;63009;52.584;5.932;2023-05-07T12:24:11;101869.09;;;19.43;76.47
74529;BME280;63009;52.584;5.932;2023-05-07T12:26:39;101865.19;;;19.47;76.43
74529;BME280;63009;52.584;5.932;2023-05-07T12:29:05;101861.31;;;19.62;75.81
74529;BME280;63009;52.584;5.932;2023-05-07T12:31:31;101875.94;;;19.58;74.61
74529;BME280;63009;52.584;5.932;2023-05-07T12:33:56;101874.13;;;19.59;74.13
74529;BME280;63009;52.584;5.932;2023-05-07T12:36:21;101866.53;;;19.64;75.28
74529;BME280;63009;52.584;5.932;2023-05-07T12:38:49;101867.53;;;19.63;76.25
74529;BME280;63009;52.584;5.932;2023-05-07T12:41:14;101863.13;;;19.62;77.83
74529;BME280;63009;52.584;5.932;2023-05-07T12:43:44;101866.28;;;19.67;77.43
74529;BME280;63009;52.584;5.932;2023-05-07T12:46:09;101870.78;;;19.77;76.59
74529;BME280;63009;52.584;5.932;2023-05-07T12:48:38;101871.91;;;19.75;74.66
74529;BME280;63009;52.584;5.932;2023-05-07T12:51:05;101868.97;;;19.78;73.76
74529;BME280;63009;52.584;5.932;2023-05-07T12:53:31;101873.94;;;19.94;73.87
74529;BME280;63009;52.584;5.932;2023-05-07T12:55:58;101878.69;;;20.01;74.45
74529;BME280;63009;52.584;5.932;2023-05-07T12:58:25;101881.38;;;20.01;72.85